ボゴタ の空港の天気 - METARとTAF

エルドラド国際空港(ボコダ) ( SKBO / BOG ) - コロンビア ボゴタ
飛行場実況気象(Metar)
観測時間12/10 00:00 COT (12/10 05:00 UTC)
風向・風速東北東 3m/s
視程10km以上
天気現象
少しの雲 雲底高度 520m
気温10℃
湿度94%
気圧1028hPa
METARSKBO 100500Z 07005KT 050V110 9999 FEW017 10/09 A3037
過去の天気等 Google飛行場航空写真 Wunderground天気予報

過去48時間のMETAR

飛行場予報(TAF)
発表時間: 12/09 18:00 COT (12/09 23:00 UTC)
予報対象時間: 9日19時 COT ~ 10日19時 COT
風向・風速不定 2m/s
視程10km以上
全天の4割程度の雲 雲底高度 520m
10日3時 COT ~ 10日8時 COT に一時的に
視程4000m
天気現象散在した霧
全天の4割程度の雲 雲底高度 300m
10日4時 COT ~ 10日8時 COT に 確率 40% で一時的に
視程300m
天気現象
10日10時 COT ~ 10日12時 COT に徐々に
風向・風速西北西 5m/s
TAF SKBO 092300Z 1000/1024 VRB03KT 9999 SCT017
TEMPO 1008/1013 4000 BCFG SCT010
PROB40 TEMPO 1009/1013 0300 FG VV///
BECMG 1015/1017 29010KT TX21/1018Z TN07/1011Z